Time;durP1;ratioP1;P1;durP2;ratioP2;P2;SDS_P1;SDS_P2;PMS_P1;PMS_P2;Temp;Humidity;BMP_temperature;BMP_pressure;BME280_temperature;BME280_humidity;BME280_pressure;Samples;Min_cycle;Max_cycle;Signal;HPM_P1;HPM_P2
2022/08/29 00:00:23;;;;;;;2.75;1.38;;;;;;;11.08;87.18;102073.06;1258361;23;20259;-84
2022/08/29 00:00:57;;;;;;;4.50;1.35;;;;;;;11.12;87.34;102074.31;1252218;23;20266;-84
2022/08/29 00:01:28;;;;;;;9.93;1.45;;;;;;;11.09;87.16;102071.22;1245845;23;20669;-85
2022/08/29 00:02:00;;;;;;;1.88;1.40;;;;;;;11.08;87.26;102075.72;1250834;23;20255;-84
2022/08/29 00:02:31;;;;;;;2.50;1.50;;;;;;;10.92;87.46;102077.78;1253549;23;20745;-84
2022/08/29 00:03:05;;;;;;;7.70;1.40;;;;;;;10.74;88.14;102079.03;1250206;23;20589;-84
2022/08/29 00:03:39;;;;;;;1.85;1.25;;;;;;;10.74;88.51;102080.88;1254869;23;20275;-84
2022/08/29 00:04:13;;;;;;;4.40;1.45;;;;;;;10.59;89.36;102080.88;1263508;23;20255;-84
2022/08/29 00:04:45;;;;;;;1.55;1.45;;;;;;;10.61;90.63;102081.53;1261720;23;20769;-84
2022/08/29 00:05:19;;;;;;;1.75;1.58;;;;;;;10.64;90.23;102081.16;1258228;23;20270;-84
2022/08/29 00:05:55;;;;;;;3.33;1.65;;;;;;;10.52;90.64;102082.66;1252070;23;20345;-84
2022/08/29 00:06:28;;;;;;;2.35;1.55;;;;;;;10.57;91.86;102085.56;1251568;23;20327;-84
2022/08/29 00:06:59;;;;;;;9.35;2.45;;;;;;;10.60;91.21;102079.03;1253922;23;20255;-84
2022/08/29 00:07:31;;;;;;;3.75;1.55;;;;;;;10.55;91.16;102087.59;1253203;23;20735;-84
2022/08/29 00:08:03;;;;;;;1.58;1.20;;;;;;;10.51;91.10;102078.34;1250414;23;20262;-84
2022/08/29 00:08:35;;;;;;;3.08;1.40;;;;;;;10.45;91.12;102081.75;1253510;23;20274;-84
2022/08/29 00:09:06;;;;;;;4.30;1.83;;;;;;;10.55;91.70;102082.28;1247588;23;20294;-84
2022/08/29 00:09:38;;;;;;;7.80;1.67;;;;;;;10.50;91.77;102074.00;1249510;23;20335;-84
2022/08/29 00:10:10;;;;;;;4.47;1.30;;;;;;;10.47;91.87;102079.72;1253740;23;20270;-85
2022/08/29 00:10:42;;;;;;;2.53;1.60;;;;;;;10.37;92.49;102079.16;1256372;23;20259;-84
2022/08/29 00:11:14;;;;;;;2.55;1.50;;;;;;;10.44;93.06;102080.09;1259457;23;20278;-84
2022/08/29 00:11:45;;;;;;;2.92;1.17;;;;;;;10.43;92.97;102073.94;1259161;23;20273;-84
2022/08/29 00:12:17;;;;;;;2.40;1.70;;;;;;;10.43;93.37;102081.09;1261735;23;20312;-85
2022/08/29 00:12:49;;;;;;;4.30;1.70;;;;;;;10.32;93.62;102070.91;1256264;23;20262;-85
2022/08/29 00:13:21;;;;;;;2.67;1.20;;;;;;;10.31;93.71;102078.06;1260118;23;20281;-84
2022/08/29 00:13:52;;;;;;;2.63;1.67;;;;;;;10.28;93.46;102074.94;1261203;23;20262;-84
2022/08/29 00:14:24;;;;;;;1.30;1.13;;;;;;;10.27;93.56;102073.28;1261946;23;20258;-84
2022/08/29 00:14:56;;;;;;;4.57;1.77;;;;;;;10.29;93.62;102076.59;1255290;23;20274;-85
2022/08/29 00:15:27;;;;;;;4.18;1.60;;;;;;;10.29;93.51;102076.59;1254422;23;20271;-84
2022/08/29 00:15:59;;;;;;;1.70;1.60;;;;;;;10.24;92.92;102076.31;1256067;23;20243;-85
2022/08/29 00:16:30;;;;;;;2.83;1.63;;;;;;;10.15;93.48;102076.38;1255844;23;20338;-84
2022/08/29 00:17:02;;;;;;;4.05;1.80;;;;;;;10.06;93.42;102072.13;1250689;23;20264;-84
2022/08/29 00:17:34;;;;;;;2.25;1.65;;;;;;;9.99;93.53;102081.88;1250861;23;20255;-84
2022/08/29 00:18:06;;;;;;;2.47;1.73;;;;;;;9.94;94.09;102086.09;1254797;23;20267;-85
2022/08/29 00:18:38;;;;;;;2.67;1.80;;;;;;;9.94;94.91;102081.59;1256865;23;20269;-84
2022/08/29 00:19:10;;;;;;;5.68;1.65;;;;;;;9.90;95.09;102077.66;1255871;23;20280;-84
2022/08/29 00:19:42;;;;;;;1.52;1.33;;;;;;;9.93;95.42;102081.78;1243460;23;20268;-84
2022/08/29 00:20:19;;;;;;;6.22;1.90;;;;;;;9.95;95.64;102080.59;1256820;23;20258;-84
2022/08/29 00:20:53;;;;;;;7.05;1.90;;;;;;;9.96;95.34;102076.91;1252211;23;20252;-84
2022/08/29 00:21:24;;;;;;;3.97;1.75;;;;;;;10.02;95.40;102076.19;1258150;23;20742;-84
2022/08/29 00:21:56;;;;;;;2.50;1.50;;;;;;;9.90;95.49;102088.28;1255972;23;20259;-84
2022/08/29 00:22:28;;;;;;;2.15;1.55;;;;;;;9.92;96.23;102078.28;1257919;23;20259;-85
2022/08/29 00:23:00;;;;;;;1.90;1.55;;;;;;;9.91;96.12;102089.94;1262653;23;20258;-84
2022/08/29 00:23:32;;;;;;;5.43;2.08;;;;;;;9.96;96.13;102081.41;1262936;23;20269;-85
2022/08/29 00:24:04;;;;;;;3.15;1.80;;;;;;;10.00;95.68;102083.53;1261852;23;20576;-84
2022/08/29 00:24:36;;;;;;;2.53;1.65;;;;;;;9.98;95.80;102080.22;1248907;23;20324;-85
2022/08/29 00:25:08;;;;;;;1.80;1.40;;;;;;;10.02;95.16;102075.34;1250530;23;20307;-84
2022/08/29 00:25:40;;;;;;;1.75;1.20;;;;;;;10.06;95.24;102074.81;1250778;23;20303;-85
2022/08/29 00:26:11;;;;;;;3.92;1.40;;;;;;;9.98;94.66;102074.91;1254077;23;20322;-85
2022/08/29 00:26:43;;;;;;;2.70;2.13;;;;;;;10.09;95.22;102077.09;1248251;23;20268;-85
2022/08/29 00:27:15;;;;;;;1.50;1.38;;;;;;;10.19;94.41;102079.50;1242854;23;20764;-85
2022/08/29 00:27:46;;;;;;;2.60;1.40;;;;;;;10.04;94.06;102086.63;1250537;23;20370;-84
2022/08/29 00:28:20;;;;;;;2.72;1.67;;;;;;;9.95;93.94;102079.75;1247780;23;20272;-85
2022/08/29 00:28:52;;;;;;;4.57;1.83;;;;;;;9.89;93.80;102081.31;1246159;23;20264;-84
2022/08/29 00:29:23;;;;;;;2.75;1.58;;;;;;;9.93;94.46;102077.28;1249071;23;20275;-84
2022/08/29 00:29:55;;;;;;;4.53;2.55;;;;;;;9.99;94.59;102081.88;1248806;23;20607;-85
2022/08/29 00:30:26;;;;;;;5.85;1.73;;;;;;;10.00;94.46;102077.38;1250648;23;20262;-84
2022/08/29 00:30:58;;;;;;;2.08;1.48;;;;;;;9.94;93.89;102078.94;1243246;23;20268;-84
2022/08/29 00:31:29;;;;;;;3.17;2.00;;;;;;;10.01;94.05;102074.53;1250282;23;20259;-84
2022/08/29 00:32:01;;;;;;;3.20;1.85;;;;;;;10.02;94.13;102086.81;1247778;23;20268;-84
2022/08/29 00:32:35;;;;;;;3.55;1.83;;;;;;;10.00;94.17;102077.38;1250523;23;20339;-84
2022/08/29 00:33:07;;;;;;;4.68;1.90;;;;;;;9.85;94.18;102074.66;1265743;23;20262;-84
2022/08/29 00:33:39;;;;;;;3.47;1.50;;;;;;;9.83;94.45;102090.00;1253742;23;20758;-84
2022/08/29 00:34:10;;;;;;;2.92;1.77;;;;;;;9.77;94.44;102085.41;1255877;23;20270;-84
2022/08/29 00:34:42;;;;;;;3.55;1.88;;;;;;;9.77;95.49;102082.75;1259840;23;20270;-84
2022/08/29 00:35:17;;;;;;;5.90;1.95;;;;;;;9.82;95.75;102085.69;1253685;23;20277;-85
2022/08/29 00:35:48;;;;;;;3.97;1.63;;;;;;;9.84;95.53;102078.34;1255914;23;20239;-84
2022/08/29 00:36:21;;;;;;;4.03;1.73;;;;;;;9.83;95.76;102082.00;1257364;23;20330;-84
2022/08/29 00:36:53;;;;;;;2.47;1.85;;;;;;;9.78;95.52;102079.06;1262937;23;20318;-85
2022/08/29 00:37:25;;;;;;;8.60;1.88;;;;;;;9.70;95.67;102077.31;1261419;23;20263;-85
2022/08/29 00:37:57;;;;;;;2.58;1.33;;;;;;;9.65;95.29;102076.22;1262866;23;20280;-85
2022/08/29 00:38:28;;;;;;;7.90;2.10;;;;;;;9.62;95.70;102079.22;1267890;23;20714;-84
2022/08/29 00:39:01;;;;;;;3.92;1.50;;;;;;;9.66;95.56;102075.19;1267877;23;20254;-84
2022/08/29 00:39:32;;;;;;;10.73;2.47;;;;;;;9.62;96.00;102076.56;1262687;23;20297;-85
2022/08/29 00:40:07;;;;;;;3.97;1.70;;;;;;;9.56;96.32;102067.44;1261954;23;20354;-84
2022/08/29 00:40:49;;;;;;;10.35;1.98;;;;;;;9.48;96.35;102076.34;1249446;23;20267;-84
2022/08/29 00:41:22;;;;;;;4.10;1.55;;;;;;;9.46;96.05;102075.69;1253751;23;20267;-85
2022/08/29 00:41:54;;;;;;;4.32;1.73;;;;;;;9.45;96.61;102079.34;1253766;23;20277;-85
2022/08/29 00:42:25;;;;;;;9.35;1.60;;;;;;;9.51;96.05;102081.28;1243782;23;20249;-85
2022/08/29 00:42:57;;;;;;;9.18;2.33;;;;;;;9.57;96.26;102082.41;1253779;23;20735;-85
2022/08/29 00:43:32;;;;;;;2.72;2.00;;;;;;;9.56;96.10;102081.56;1256655;23;20568;-84
2022/08/29 00:44:04;;;;;;;4.13;1.20;;;;;;;9.53;97.06;102084.59;1257258;23;20277;-84
2022/08/29 00:44:36;;;;;;;2.03;1.60;;;;;;;9.47;96.59;102082.66;1258559;23;20259;-84
2022/08/29 00:45:09;;;;;;;2.20;1.92;;;;;;;9.42;97.21;102076.22;1267663;23;20269;-84
2022/08/29 00:45:50;;;;;;;1.52;1.30;;;;;;;9.36;97.31;102085.75;1265736;23;20276;-84
2022/08/29 00:46:45;;;;;;;1.95;1.50;;;;;;;9.31;98.59;102082.78;1261857;23;20577;-84
2022/08/29 00:47:21;;;;;;;3.10;1.52;;;;;;;9.36;98.93;102082.25;1256884;23;20015;-84
2022/08/29 00:48:19;;;;;;;2.05;1.48;;;;;;;9.38;98.13;102086.41;1248021;23;20347;-84
2022/08/29 00:48:58;;;;;;;2.00;1.67;;;;;;;9.27;98.40;102084.13;1242976;23;20260;-84
2022/08/29 00:49:35;;;;;;;5.63;1.80;;;;;;;9.22;98.36;102084.66;1254548;23;20287;-84
2022/08/29 00:50:09;;;;;;;2.20;1.45;;;;;;;9.19;98.88;102087.69;1256017;23;20267;-84
2022/08/29 00:50:50;;;;;;;1.58;1.48;;;;;;;9.29;99.08;102080.28;1255955;23;20294;-85
2022/08/29 00:51:22;;;;;;;4.57;1.65;;;;;;;9.42;99.31;102087.69;1253640;23;20267;-84
2022/08/29 00:51:56;;;;;;;1.48;1.38;;;;;;;9.52;98.73;102085.59;1253130;23;20256;-85
2022/08/29 00:52:33;;;;;;;4.53;1.55;;;;;;;9.51;98.30;102083.94;1253146;23;20295;-85
2022/08/29 00:53:09;;;;;;;3.65;1.65;;;;;;;9.50;97.52;102090.28;1254378;23;20256;-84
2022/08/29 00:53:44;;;;;;;3.70;1.77;;;;;;;9.51;97.49;102091.09;1253059;23;20248;-84
2022/08/29 00:54:15;;;;;;;2.10;1.42;;;;;;;9.47;97.53;102087.97;1247153;23;20582;-84
2022/08/29 00:54:50;;;;;;;2.35;1.58;;;;;;;9.43;97.35;102089.34;1246192;23;20241;-84
2022/08/29 00:55:25;;;;;;;5.22;2.60;;;;;;;9.44;97.62;102082.19;1247775;23;20296;-85
2022/08/29 00:55:57;;;;;;;5.13;2.03;;;;;;;9.49;97.19;102085.97;1247461;23;20267;-84
2022/08/29 00:56:30;;;;;;;1.45;1.25;;;;;;;9.52;96.63;102085.59;1253201;23;20631;-84
2022/08/29 00:57:02;;;;;;;2.55;1.92;;;;;;;9.54;96.53;102082.75;1253713;23;20273;-84
2022/08/29 00:57:34;;;;;;;11.55;1.92;;;;;;;9.51;95.94;102078.63;1247853;23;20275;-84
2022/08/29 00:58:14;;;;;;;2.45;1.90;;;;;;;9.56;95.62;102080.75;1244589;23;20323;-85
2022/08/29 00:58:56;;;;;;;10.25;2.20;;;;;;;9.48;95.49;102079.00;1250098;23;20283;-85
2022/08/29 00:59:33;;;;;;;3.10;1.70;;;;;;;9.54;95.33;102078.28;1258111;23;20023;-84
2022/08/29 01:00:06;;;;;;;14.00;2.40;;;;;;;9.41;96.65;102075.41;1256011;23;20754;-84
2022/08/29 01:00:38;;;;;;;2.28;1.70;;;;;;;9.54;96.12;102077.44;1247774;23;20717;-84
2022/08/29 01:01:10;;;;;;;4.38;1.83;;;;;;;9.57;95.81;102077.91;1265554;23;20333;-84
2022/08/29 01:01:42;;;;;;;2.78;1.50;;;;;;;9.55;95.89;102073.78;1259750;23;20762;-84
2022/08/29 01:02:13;;;;;;;6.00;1.90;;;;;;;9.46;96.16;102075.69;1259595;23;20273;-84
2022/08/29 01:02:47;;;;;;;2.20;1.65;;;;;;;9.38;95.84;102080.25;1255716;23;20611;-84
2022/08/29 01:03:19;;;;;;;5.30;1.63;;;;;;;9.37;95.86;102066.13;1249568;23;20267;-84
2022/08/29 01:03:51;;;;;;;5.70;1.60;;;;;;;9.48;95.71;102073.69;1253771;23;20661;-84
2022/08/29 01:04:22;;;;;;;4.10;2.00;;;;;;;9.56;95.54;102070.94;1253637;23;20604;-83
2022/08/29 01:04:54;;;;;;;8.20;1.40;;;;;;;9.50;95.13;102079.66;1247726;23;20624;-84
2022/08/29 01:05:26;;;;;;;2.35;1.38;;;;;;;9.51;95.20;102077.81;1247834;23;20278;-84
2022/08/29 01:05:59;;;;;;;4.57;1.75;;;;;;;9.49;95.22;102074.50;1243813;23;20260;-84
2022/08/29 01:06:31;;;;;;;2.40;1.65;;;;;;;9.63;94.92;102075.56;1245396;23;20275;-84
2022/08/29 01:07:03;;;;;;;5.13;1.80;;;;;;;9.70;95.46;102074.66;1244342;23;20256;-84
2022/08/29 01:07:35;;;;;;;9.15;2.83;;;;;;;9.66;94.77;102078.69;1247934;23;20272;-84
2022/08/29 01:08:11;;;;;;;5.18;1.80;;;;;;;9.67;93.91;102076.84;1247459;23;20274;-84
2022/08/29 01:08:43;;;;;;;9.57;2.05;;;;;;;9.68;92.94;102073.19;1255756;23;20255;-84
2022/08/29 01:09:15;;;;;;;6.43;1.83;;;;;;;9.49;93.50;102075.31;1253659;23;20266;-84
2022/08/29 01:09:46;;;;;;;3.63;1.50;;;;;;;9.44;93.70;102072.38;1262601;23;20261;-84
2022/08/29 01:12:16;;;;;;;5.57;2.13;;;;;;;9.37;95.32;102075.94;1252132;23;20460;-84
2022/08/29 01:12:48;;;;;;;5.25;1.73;;;;;;;9.38;95.31;102073.09;1260826;23;20262;-84
2022/08/29 01:13:23;;;;;;;3.50;1.45;;;;;;;9.45;95.75;102082.00;1254840;23;20416;-83
2022/08/29 01:13:55;;;;;;;2.58;1.85;;;;;;;9.50;95.00;102082.31;1260262;23;20290;-84
2022/08/29 01:14:27;;;;;;;6.07;1.65;;;;;;;9.52;95.17;102079.47;1253637;23;20271;-85
2022/08/29 01:15:04;;;;;;;7.88;2.47;;;;;;;9.64;95.49;102087.88;1253445;23;20277;-83
2022/08/29 01:15:37;;;;;;;4.43;1.65;;;;;;;9.66;95.06;102081.34;1253669;23;20274;-83
2022/08/29 01:16:09;;;;;;;16.70;2.03;;;;;;;9.75;95.01;102090.09;1247585;23;20275;-83
2022/08/29 01:16:41;;;;;;;2.60;1.90;;;;;;;9.88;95.68;102087.66;1247865;23;20274;-84
2022/08/29 01:17:16;;;;;;;5.20;2.10;;;;;;;9.90;95.49;102083.78;1244011;23;20253;-84
2022/08/29 01:17:48;;;;;;;4.00;1.80;;;;;;;9.94;95.58;102076.28;1249027;23;20271;-83
2022/08/29 01:18:21;;;;;;;2.85;1.83;;;;;;;10.03;95.93;102088.47;1258693;23;20829;-83
2022/08/29 01:18:57;;;;;;;2.50;1.67;;;;;;;9.96;95.80;102082.22;1253637;23;20271;-83
2022/08/29 01:19:40;;;;;;;5.30;2.40;;;;;;;9.91;95.62;102079.28;1245188;23;20255;-84
2022/08/29 01:20:26;;;;;;;4.00;1.73;;;;;;;9.81;94.37;102078.72;1247643;23;20271;-83
2022/08/29 01:21:18;;;;;;;5.15;1.83;;;;;;;9.73;94.23;102084.13;1249786;23;20255;-83
2022/08/29 01:21:53;;;;;;;;;;;;;;;9.74;93.12;102083.09;1260097;23;20258;-83
2022/08/29 01:22:37;;;;;;;3.58;1.90;;;;;;;9.58;93.15;102079.56;1267872;23;19921;-83
2022/08/29 01:23:17;;;;;;;1.40;1.27;;;;;;;9.71;92.85;102081.63;1265578;23;20265;-84
2022/08/29 01:24:30;;;;;;;4.75;1.80;;;;;;;9.85;92.11;102085.31;1261670;23;20576;-83
2022/08/29 01:25:06;;;;;;;3.03;1.55;;;;;;;9.76;91.67;102081.09;1253365;23;20295;-83
2022/08/29 01:25:40;;;;;;;2.70;1.27;;;;;;;9.69;90.74;102075.66;1253149;23;20432;-83
2022/08/29 01:26:12;;;;;;;2.85;1.65;;;;;;;9.69;91.03;102080.16;1255578;23;20263;-84
2022/08/29 01:26:45;;;;;;;2.08;1.58;;;;;;;9.67;90.80;102072.38;1253435;23;20267;-83
2022/08/29 01:27:19;;;;;;;4.85;1.58;;;;;;;9.70;90.90;102076.50;1259345;23;20270;-83
2022/08/29 01:28:03;;;;;;;4.25;1.90;;;;;;;9.54;90.95;102078.28;1261563;23;20254;-83
2022/08/29 01:28:39;;;;;;;24.10;4.53;;;;;;;9.47;91.17;102077.34;1247175;23;20275;-83
2022/08/29 01:29:11;;;;;;;82.70;10.50;;;;;;;9.45;90.91;102071.38;1243829;23;20260;-83
2022/08/29 01:29:42;;;;;;;62.95;9.98;;;;;;;9.38;91.58;102069.63;1235607;23;20272;-83
2022/08/29 01:30:14;;;;;;;83.03;13.88;;;;;;;9.33;91.40;102067.50;1241015;23;20257;-83
2022/08/29 01:30:59;;;;;;;84.53;10.73;;;;;;;9.24;92.28;102065.88;1246571;23;20331;-83
2022/08/29 01:31:42;;;;;;;182.85;26.92;;;;;;;9.23;93.31;102066.88;1264994;23;20253;-83
2022/08/29 01:32:27;;;;;;;255.88;36.10;;;;;;;9.19;93.89;102073.56;1269867;23;20254;-84
2022/08/29 01:32:59;;;;;;;269.02;33.35;;;;;;;9.11;93.94;102076.28;1259434;23;20814;-84
2022/08/29 01:33:48;;;;;;;269.17;33.03;;;;;;;9.20;94.81;102072.56;1255405;23;20259;-84
2022/08/29 01:34:20;;;;;;;181.23;22.83;;;;;;;9.14;94.17;102070.63;1255551;23;20263;-84
2022/08/29 01:34:53;;;;;;;161.88;24.30;;;;;;;9.09;95.02;102072.97;1258061;23;20599;-83
2022/08/29 01:35:26;;;;;;;119.40;16.17;;;;;;;9.05;95.10;102071.69;1261648;23;20591;-83
2022/08/29 01:35:57;;;;;;;123.75;16.52;;;;;;;8.95;95.40;102067.41;1249345;23;20259;-83
2022/08/29 01:36:49;;;;;;;130.65;19.13;;;;;;;9.05;95.84;102074.34;1250484;23;20289;-83
2022/08/29 01:37:21;;;;;;;173.55;23.25;;;;;;;9.14;94.82;102066.13;1254553;23;20258;-83
2022/08/29 01:37:53;;;;;;;139.80;18.50;;;;;;;9.20;94.86;102075.22;1253993;23;20255;-83
2022/08/29 01:38:27;;;;;;;86.88;13.25;;;;;;;9.24;94.80;102071.19;1248327;23;20256;-83
2022/08/29 01:38:59;;;;;;;91.10;12.85;;;;;;;9.35;94.27;102067.31;1248078;23;20283;-83
2022/08/29 01:39:34;;;;;;;41.55;6.97;;;;;;;9.25;94.25;102067.53;1253504;23;20267;-83
2022/08/29 01:40:06;;;;;;;35.63;5.10;;;;;;;9.24;94.62;102071.19;1241707;23;20325;-84
2022/08/29 01:40:38;;;;;;;46.03;6.95;;;;;;;9.24;94.33;102071.19;1249254;23;20577;-84
2022/08/29 01:41:11;;;;;;;51.45;9.23;;;;;;;9.30;94.82;102076.63;1252376;23;20275;-83
2022/08/29 01:41:43;;;;;;;56.97;8.02;;;;;;;9.31;94.72;102080.13;1254384;23;20290;-83
2022/08/29 01:42:19;;;;;;;62.58;7.57;;;;;;;9.34;94.43;102074.47;1256708;23;20270;-84
2022/08/29 01:42:51;;;;;;;39.08;5.65;;;;;;;9.38;94.19;102075.75;1252877;23;20365;-83
2022/08/29 01:43:22;;;;;;;31.55;5.75;;;;;;;9.34;93.97;102074.47;1251233;23;20252;-83
2022/08/29 01:43:55;;;;;;;23.33;5.07;;;;;;;9.25;93.96;102079.00;1247523;23;20268;-83
2022/08/29 01:44:26;;;;;;;30.42;5.18;;;;;;;9.20;93.83;102081.38;1249745;23;20266;-83
2022/08/29 01:44:59;;;;;;;17.42;3.25;;;;;;;9.13;93.22;102085.75;1250417;23;20596;-84
2022/08/29 01:45:33;;;;;;;18.40;5.47;;;;;;;9.22;93.62;102089.16;1247239;23;20362;-83
2022/08/29 01:46:04;;;;;;;13.60;2.40;;;;;;;9.30;93.79;102079.28;1253475;23;20310;-83
2022/08/29 01:46:37;;;;;;;9.30;3.05;;;;;;;9.36;93.99;102084.94;1250831;23;20255;-83
2022/08/29 01:47:10;;;;;;;9.45;2.55;;;;;;;9.39;93.40;102080.06;1252104;23;20260;-83
2022/08/29 01:47:41;;;;;;;7.40;2.55;;;;;;;9.43;93.93;102084.03;1256352;23;20346;-83
2022/08/29 01:48:13;;;;;;;5.53;2.38;;;;;;;9.47;93.44;102080.00;1256627;23;20266;-83
2022/08/29 01:48:45;;;;;;;10.93;2.05;;;;;;;9.35;95.06;102077.94;1259214;23;20277;-84
2022/08/29 01:49:18;;;;;;;7.32;2.13;;;;;;;9.46;94.70;102086.31;1254526;23;20263;-83
2022/08/29 01:49:49;;;;;;;10.88;2.95;;;;;;;9.48;95.13;102084.31;1262279;23;20686;-83
2022/08/29 01:50:21;;;;;;;10.25;3.28;;;;;;;9.52;94.87;102080.28;1261493;23;20262;-83
2022/08/29 01:50:53;;;;;;;9.45;2.10;;;;;;;9.52;94.65;102084.78;1262347;23;20254;-83
2022/08/29 01:51:24;;;;;;;8.77;2.55;;;;;;;9.58;94.99;102079.56;1261692;23;20661;-84
2022/08/29 01:51:56;;;;;;;13.55;2.75;;;;;;;9.57;95.17;102080.56;1257007;23;20259;-83
2022/08/29 01:52:28;;;;;;;7.45;2.22;;;;;;;9.46;95.89;102078.34;1261280;23;20254;-83
2022/08/29 01:52:59;;;;;;;5.80;2.28;;;;;;;9.52;95.35;102084.78;1255441;23;20835;-83
2022/08/29 01:53:31;;;;;;;4.35;2.30;;;;;;;9.59;95.34;102075.94;1250243;23;20274;-83
2022/08/29 01:54:07;;;;;;;4.47;1.85;;;;;;;9.59;95.62;102075.09;1247329;23;20275;-83
2022/08/29 01:54:40;;;;;;;9.07;2.55;;;;;;;9.56;96.02;102081.56;1253607;23;20271;-83
2022/08/29 01:55:12;;;;;;;14.43;3.50;;;;;;;9.52;94.98;102074.13;1249554;23;20278;-83
2022/08/29 01:55:43;;;;;;;10.15;2.88;;;;;;;9.49;95.61;102071.84;1257372;23;20247;-83
2022/08/29 01:56:18;;;;;;;10.32;2.53;;;;;;;9.53;95.72;102076.63;1256240;23;20255;-83
2022/08/29 01:56:51;;;;;;;8.52;2.28;;;;;;;9.53;96.18;102065.97;1256944;23;20255;-83
2022/08/29 01:57:23;;;;;;;6.40;1.90;;;;;;;9.54;96.52;102062.31;1257215;23;20311;-83
2022/08/29 01:57:55;;;;;;;7.88;1.95;;;;;;;9.53;96.30;102070.47;1257047;23;20278;-84
2022/08/29 01:58:26;;;;;;;8.77;2.05;;;;;;;9.51;96.49;102065.34;1262465;23;20265;-83
2022/08/29 01:58:59;;;;;;;5.40;2.33;;;;;;;9.46;96.95;102070.38;1268365;23;20264;-84
2022/08/29 01:59:33;;;;;;;4.93;1.67;;;;;;;9.53;97.02;102068.63;1260524;23;20277;-83
2022/08/29 02:00:07;;;;;;;4.68;2.05;;;;;;;9.47;96.90;102066.72;1253139;23;20275;-84
2022/08/29 02:00:38;;;;;;;6.65;1.92;;;;;;;9.49;97.31;102063.88;1261389;23;20320;-84
2022/08/29 02:01:13;;;;;;;7.80;2.03;;;;;;;9.48;96.95;102068.34;1253319;23;20318;-85
2022/08/29 02:01:52;;;;;;;6.93;1.92;;;;;;;9.57;97.02;102072.59;1241853;23;20342;-84
2022/08/29 02:02:26;;;;;;;4.38;1.83;;;;;;;9.60;97.46;102077.59;1247503;23;20794;-84
2022/08/29 02:02:59;;;;;;;11.43;1.75;;;;;;;9.65;96.88;102065.56;1254974;23;20255;-85
2022/08/29 02:03:31;;;;;;;11.32;2.15;;;;;;;9.72;96.89;102074.47;1261149;23;20254;-84
2022/08/29 02:04:05;;;;;;;4.85;2.67;;;;;;;9.77;96.95;102077.41;1253087;23;20640;-84
2022/08/29 02:04:39;;;;;;;8.32;2.40;;;;;;;9.80;97.29;102072.56;1251180;23;20596;-84
2022/08/29 02:05:11;;;;;;;5.75;2.15;;;;;;;9.88;97.28;102077.81;1257469;23;20255;-84
2022/08/29 02:05:46;;;;;;;6.00;2.08;;;;;;;9.90;97.01;102077.66;1258599;23;20592;-84
2022/08/29 02:06:18;;;;;;;5.00;2.15;;;;;;;9.81;96.38;102076.03;1269349;23;20587;-84
2022/08/29 02:06:49;;;;;;;5.07;1.90;;;;;;;9.72;96.62;102085.13;1265371;23;20277;-84
2022/08/29 02:07:23;;;;;;;4.55;1.60;;;;;;;9.67;96.33;102088.31;1261390;23;20622;-84
2022/08/29 02:07:56;;;;;;;4.07;1.88;;;;;;;9.74;96.45;102085.75;1248970;23;20283;-85
2022/08/29 02:08:28;;;;;;;7.60;2.38;;;;;;;9.77;96.64;102085.41;1250879;23;20663;-84
2022/08/29 02:08:59;;;;;;;3.65;1.80;;;;;;;9.78;96.55;102087.06;1251232;23;20398;-84
2022/08/29 02:09:31;;;;;;;3.55;1.88;;;;;;;9.82;96.41;102080.34;1251618;23;20259;-84
2022/08/29 02:10:04;;;;;;;8.95;3.22;;;;;;;9.88;96.56;102087.66;1254210;23;20259;-85
2022/08/29 02:10:36;;;;;;;6.53;1.70;;;;;;;9.96;96.02;102092.88;1256366;23;20259;-84
2022/08/29 02:11:09;;;;;;;4.45;1.70;;;;;;;9.98;96.05;102090.88;1259378;23;20266;-84
2022/08/29 02:11:40;;;;;;;3.60;2.00;;;;;;;9.92;95.91;102086.28;1254694;23;20589;-84
2022/08/29 02:12:13;;;;;;;4.20;1.70;;;;;;;10.01;96.24;102090.50;1256483;23;20251;-84
2022/08/29 02:12:45;;;;;;;4.47;2.05;;;;;;;10.01;95.74;102087.84;1258408;23;20255;-84
2022/08/29 02:13:16;;;;;;;3.03;1.75;;;;;;;10.10;95.93;102084.06;1254113;23;20270;-85
2022/08/29 02:13:54;;;;;;;3.13;1.70;;;;;;;10.14;95.88;102085.38;1253815;23;20271;-84
2022/08/29 02:14:25;;;;;;;4.47;1.50;;;;;;;10.12;96.41;102092.69;1251130;23;20275;-84
2022/08/29 02:14:57;;;;;;;2.20;1.33;;;;;;;10.06;95.84;102087.28;1255872;23;20255;-85
2022/08/29 02:15:29;;;;;;;3.65;1.35;;;;;;;10.05;96.22;102091.78;1257005;23;20361;-85
2022/08/29 02:16:01;;;;;;;2.22;1.95;;;;;;;10.02;96.41;102089.50;1261494;23;20251;-84
2022/08/29 02:16:33;;;;;;;2.47;1.67;;;;;;;9.98;96.51;102085.53;1253329;23;20270;-85
2022/08/29 02:17:06;;;;;;;4.35;1.48;;;;;;;9.95;96.64;102088.56;1248079;23;20272;-84
2022/08/29 02:17:37;;;;;;;7.95;2.40;;;;;;;9.88;96.06;102093.78;1247354;23;20321;-84
2022/08/29 02:18:09;;;;;;;5.63;1.50;;;;;;;9.86;96.70;102094.94;1249838;23;20263;-85
2022/08/29 02:18:41;;;;;;;5.63;2.03;;;;;;;9.83;97.07;102087.34;1249433;23;20263;-85
2022/08/29 02:19:12;;;;;;;6.00;1.83;;;;;;;9.82;96.86;102091.00;1250338;23;20264;-84
2022/08/29 02:19:44;;;;;;;8.70;1.73;;;;;;;9.87;97.31;102088.66;1262409;23;20269;-84
2022/08/29 02:20:16;;;;;;;5.97;1.80;;;;;;;9.83;97.37;102088.16;1268632;23;20622;-84
2022/08/29 02:20:47;;;;;;;5.65;1.40;;;;;;;9.96;98.05;102082.22;1267760;23;20265;-84
2022/08/29 02:21:22;;;;;;;3.53;2.58;;;;;;;10.02;97.90;102086.00;1262678;23;20746;-84
2022/08/29 02:21:53;;;;;;;4.85;1.70;;;;;;;10.10;98.44;102084.06;1254192;23;20279;-84
2022/08/29 02:22:25;;;;;;;12.32;2.15;;;;;;;10.08;98.72;102075.44;1256165;23;20306;-84
2022/08/29 02:22:57;;;;;;;8.02;2.03;;;;;;;10.10;98.66;102077.91;1256842;23;20258;-84
2022/08/29 02:23:29;;;;;;;2.50;1.50;;;;;;;10.12;98.70;102084.72;1257561;23;20258;-84
2022/08/29 02:24:03;;;;;;;5.10;2.22;;;;;;;10.02;98.41;102091.31;1257249;23;20274;-84
2022/08/29 02:24:55;;;;;;;1.83;1.60;;;;;;;10.02;98.64;102086.81;1255719;23;20371;-84
2022/08/29 02:25:41;;;;;;;4.40;1.80;;;;;;;10.10;99.24;102084.06;1256080;23;20247;-84
2022/08/29 02:26:13;;;;;;;3.70;2.00;;;;;;;10.19;99.09;102088.31;1263665;23;20262;-84
2022/08/29 02:26:44;;;;;;;3.35;1.50;;;;;;;10.11;98.78;102091.03;1259891;23;20273;-84
2022/08/29 02:27:16;;;;;;;4.85;1.85;;;;;;;10.22;98.79;102081.84;1253843;23;20262;-85
2022/08/29 02:27:49;;;;;;;4.75;1.85;;;;;;;10.20;98.42;102089.16;1256118;23;20604;-85
2022/08/29 02:28:21;;;;;;;2.80;1.67;;;;;;;10.26;98.84;102087.63;1248889;23;20282;-84
2022/08/29 02:28:54;;;;;;;2.97;1.67;;;;;;;10.33;98.12;102084.03;1250272;23;20685;-84
2022/08/29 02:29:26;;;;;;;3.67;1.75;;;;;;;10.30;98.14;102083.56;1262031;23;20258;-84
2022/08/29 02:30:08;;;;;;;1.88;1.67;;;;;;;10.22;97.59;102084.50;1256784;23;20267;-84
2022/08/29 02:30:42;;;;;;;2.80;1.50;;;;;;;10.21;97.87;102086.34;1253030;23;20307;-84
2022/08/29 02:31:15;;;;;;;6.15;2.70;;;;;;;10.26;97.58;102090.28;1254191;23;20555;-84
2022/08/29 02:31:47;;;;;;;1.33;1.23;;;;;;;10.24;97.91;102085.13;1254914;23;20255;-84
2022/08/29 02:32:19;;;;;;;3.33;1.83;;;;;;;10.30;97.69;102086.22;1249492;23;20278;-84
2022/08/29 02:32:50;;;;;;;6.55;2.00;;;;;;;10.39;97.51;102090.44;1258099;23;20259;-84
2022/08/29 02:33:23;;;;;;;1.85;1.55;;;;;;;10.34;97.32;102091.00;1263121;23;20577;-84
2022/08/29 02:33:55;;;;;;;4.07;1.77;;;;;;;10.33;97.10;102088.53;1262015;23;20304;-84
2022/08/29 02:34:29;;;;;;;5.07;1.95;;;;;;;10.29;97.49;102097.91;1257035;23;20278;-84
2022/08/29 02:35:01;;;;;;;10.90;2.17;;;;;;;10.26;96.78;102095.59;1251278;23;20272;-84
2022/08/29 02:35:35;;;;;;;3.92;1.80;;;;;;;10.29;97.11;102089.91;1257773;23;20770;-84
2022/08/29 02:36:13;;;;;;;6.97;1.90;;;;;;;10.31;97.03;102093.22;1259247;23;20250;-84
2022/08/29 02:36:45;;;;;;;2.70;1.45;;;;;;;10.41;96.73;102096.44;1258712;23;20605;-84
2022/08/29 02:37:19;;;;;;;1.80;1.50;;;;;;;10.46;96.48;102094.03;1256025;23;20582;-84
2022/08/29 02:37:51;;;;;;;3.78;1.83;;;;;;;10.49;96.79;102093.69;1255023;23;20248;-84
2022/08/29 02:38:23;;;;;;;2.38;1.90;;;;;;;10.45;96.61;102090.56;1249152;23;20279;-84
2022/08/29 02:38:54;;;;;;;3.63;1.75;;;;;;;10.46;96.69;102091.38;1251435;23;20256;-84
2022/08/29 02:39:26;;;;;;;7.60;2.17;;;;;;;10.44;96.55;102096.06;1250928;23;20275;-84
2022/08/29 02:39:57;;;;;;;3.13;1.27;;;;;;;10.49;97.05;102088.34;1256543;23;20262;-84